createdAt,value
2023-05-16T00:02:20.178Z,19.83
2023-05-16T00:04:48.724Z,22.70
2023-05-16T00:07:17.021Z,19.23
2023-05-16T00:09:45.261Z,17.50
2023-05-16T00:12:13.507Z,20.25
2023-05-16T00:14:43.209Z,18.90
2023-05-16T00:17:12.571Z,20.35
2023-05-16T00:19:42.323Z,20.50
2023-05-16T00:22:11.533Z,23.98
2023-05-16T00:24:39.909Z,16.02
2023-05-16T00:27:08.123Z,16.15
2023-05-16T00:29:36.663Z,25.48
2023-05-16T00:32:08.876Z,20.88
2023-05-16T00:34:37.582Z,19.75
2023-05-16T00:37:06.321Z,26.27
2023-05-16T00:39:34.548Z,17.33
2023-05-16T00:42:02.946Z,25.92
2023-05-16T00:44:33.031Z,17.40
2023-05-16T00:47:02.813Z,24.23
2023-05-16T00:49:32.777Z,16.27
2023-05-16T00:52:01.371Z,17.25
2023-05-16T00:54:31.371Z,24.40
2023-05-16T00:56:59.767Z,24.70
2023-05-16T00:59:28.796Z,24.58
2023-05-16T01:01:57.124Z,20.40
2023-05-16T01:04:26.694Z,27.85
2023-05-16T01:06:57.945Z,20.90
2023-05-16T01:09:26.324Z,21.25
2023-05-16T01:12:03.294Z,20.13
2023-05-16T01:14:42.777Z,18.83
2023-05-16T01:17:21.608Z,30.58
2023-05-16T01:20:06.499Z,21.60
2023-05-16T01:22:49.049Z,20.63
2023-05-16T01:25:28.435Z,15.80
2023-05-16T01:27:59.624Z,19.20
2023-05-16T01:30:27.964Z,25.38
2023-05-16T01:32:56.266Z,19.30
2023-05-16T01:35:26.583Z,18.08
2023-05-16T01:38:06.125Z,12.90
2023-05-16T01:40:42.420Z,22.60
2023-05-16T01:43:15.528Z,19.80
2023-05-16T01:45:52.352Z,14.40
2023-05-16T01:48:24.531Z,20.40
2023-05-16T01:50:56.184Z,23.27
2023-05-16T01:53:29.506Z,21.10
2023-05-16T01:55:59.608Z,19.88
2023-05-16T01:58:33.065Z,16.52
2023-05-16T02:01:03.370Z,18.70
2023-05-16T02:03:31.791Z,20.75
2023-05-16T02:06:00.130Z,17.45
2023-05-16T02:08:29.582Z,23.65
2023-05-16T02:10:57.867Z,20.92
2023-05-16T02:13:26.129Z,19.27
2023-05-16T02:15:55.822Z,18.63
2023-05-16T02:18:24.767Z,18.90
2023-05-16T02:20:53.233Z,16.67
2023-05-16T02:23:21.678Z,14.93
2023-05-16T02:25:50.533Z,17.67
2023-05-16T02:28:18.807Z,19.95
2023-05-16T02:30:47.106Z,19.77
2023-05-16T02:33:16.811Z,21.33
2023-05-16T02:35:45.097Z,13.55
2023-05-16T02:38:17.567Z,14.70
2023-05-16T02:40:46.206Z,16.50
2023-05-16T02:43:14.406Z,14.50
2023-05-16T02:45:44.178Z,26.33
2023-05-16T02:48:12.949Z,16.08
2023-05-16T02:50:43.981Z,19.30
2023-05-16T02:53:12.321Z,20.50
2023-05-16T02:55:40.894Z,14.38
2023-05-16T02:58:09.329Z,19.30
2023-05-16T03:00:37.618Z,19.95
2023-05-16T03:03:06.289Z,15.77
2023-05-16T03:05:34.788Z,20.50
2023-05-16T03:08:04.430Z,16.70
2023-05-16T03:10:35.405Z,21.52
2023-05-16T03:13:03.659Z,17.98
2023-05-16T03:15:31.975Z,17.33
2023-05-16T03:18:00.844Z,19.75
2023-05-16T03:20:29.133Z,21.10
2023-05-16T03:22:58.094Z,21.48
2023-05-16T03:25:28.150Z,19.60
2023-05-16T03:27:56.841Z,21.55
2023-05-16T03:30:26.578Z,17.92
2023-05-16T03:32:54.964Z,19.75
2023-05-16T03:35:24.753Z,16.10
2023-05-16T03:37:53.124Z,23.08
2023-05-16T03:40:21.817Z,21.05
2023-05-16T03:42:51.583Z,18.85
2023-05-16T03:45:19.984Z,21.35
2023-05-16T03:47:49.933Z,17.90
2023-05-16T03:50:18.352Z,16.95
2023-05-16T03:52:46.607Z,18.30
2023-05-16T03:55:15.446Z,14.82
2023-05-16T03:57:44.136Z,20.65
2023-05-16T04:00:14.921Z,23.60
2023-05-16T04:02:44.020Z,18.42
2023-05-16T04:05:14.084Z,17.55
2023-05-16T04:07:43.011Z,19.83
2023-05-16T04:10:12.599Z,17.17
2023-05-16T04:12:40.809Z,13.80
2023-05-16T04:15:09.865Z,16.20
2023-05-16T04:17:40.237Z,19.20
2023-05-16T04:20:09.187Z,20.17
2023-05-16T04:22:37.521Z,18.63
2023-05-16T04:25:06.320Z,22.38
2023-05-16T04:27:34.601Z,19.40
2023-05-16T04:30:03.006Z,17.50
2023-05-16T04:32:34.690Z,14.45
2023-05-16T04:35:04.574Z,14.02
2023-05-16T04:37:32.918Z,19.85
2023-05-16T04:40:01.249Z,19.05
2023-05-16T04:42:29.552Z,23.95
2023-05-16T04:44:58.716Z,15.70
2023-05-16T04:47:27.032Z,16.27
2023-05-16T04:49:55.330Z,17.20
2023-05-16T04:52:25.104Z,18.73
2023-05-16T04:54:53.475Z,15.70
2023-05-16T04:57:21.812Z,22.48
2023-05-16T04:59:50.088Z,14.57
2023-05-16T05:02:18.372Z,17.45
2023-05-16T05:04:46.807Z,16.83
2023-05-16T05:07:15.237Z,18.75
2023-05-16T05:09:44.912Z,18.92
2023-05-16T05:12:13.284Z,18.80
2023-05-16T05:14:41.551Z,17.23
2023-05-16T05:17:09.877Z,13.73
2023-05-16T05:19:38.294Z,13.48
2023-05-16T05:22:07.010Z,16.05
2023-05-16T05:24:35.311Z,14.50
2023-05-16T05:27:05.113Z,14.90
2023-05-16T05:29:34.049Z,16.33
2023-05-16T05:32:02.435Z,17.42
2023-05-16T05:34:30.862Z,25.52
2023-05-16T05:36:59.148Z,18.58
2023-05-16T05:39:27.807Z,18.38
2023-05-16T05:41:56.181Z,12.90
2023-05-16T05:44:25.928Z,23.38
2023-05-16T05:46:54.426Z,15.52
2023-05-16T05:49:23.418Z,14.30
2023-05-16T05:51:52.377Z,23.70
2023-05-16T05:54:21.177Z,15.32
2023-05-16T05:56:49.525Z,15.98
2023-05-16T05:59:18.003Z,8.88
2023-05-16T06:01:47.684Z,13.02
2023-05-16T06:04:15.948Z,18.85
2023-05-16T06:06:44.208Z,15.25
2023-05-16T06:09:12.797Z,13.30
2023-05-16T06:11:41.309Z,11.57
2023-05-16T06:14:09.607Z,11.85
2023-05-16T06:16:39.513Z,13.55
2023-05-16T06:19:09.329Z,18.88
2023-05-16T06:21:38.025Z,11.65
2023-05-16T06:24:06.546Z,12.90
2023-05-16T06:26:35.096Z,13.43
2023-05-16T06:29:03.349Z,12.23
2023-05-16T06:31:32.417Z,16.75
2023-05-16T06:34:00.874Z,13.82
2023-05-16T06:36:31.196Z,15.18
2023-05-16T06:38:59.476Z,12.68
2023-05-16T06:41:27.833Z,13.82
2023-05-16T06:43:56.124Z,10.05
2023-05-16T06:46:24.747Z,11.00
2023-05-16T06:48:53.178Z,16.75
2023-05-16T06:51:21.474Z,10.38
2023-05-16T06:53:51.153Z,14.18
2023-05-16T06:56:19.539Z,14.77
2023-05-16T06:58:49.622Z,14.93
2023-05-16T07:01:18.073Z,12.02
2023-05-16T07:03:46.476Z,16.52
2023-05-16T07:06:14.891Z,12.77
2023-05-16T07:08:43.215Z,12.73
2023-05-16T07:11:12.935Z,14.48
2023-05-16T07:13:41.251Z,11.05
2023-05-16T07:16:09.584Z,15.57
2023-05-16T07:18:38.023Z,15.88
2023-05-16T07:21:06.749Z,13.95
2023-05-16T07:23:35.060Z,11.93
2023-05-16T07:26:03.499Z,16.42
2023-05-16T07:28:33.234Z,12.70
2023-05-16T07:31:01.537Z,17.77
2023-05-16T07:33:29.943Z,12.95
2023-05-16T07:36:11.956Z,9.20
2023-05-16T07:38:44.341Z,13.52
2023-05-16T07:41:12.732Z,9.05
2023-05-16T07:43:42.491Z,15.20
2023-05-16T07:46:11.629Z,11.13
2023-05-16T07:48:39.970Z,12.35
2023-05-16T07:51:08.779Z,13.75
2023-05-16T07:53:37.349Z,13.73
2023-05-16T07:56:06.910Z,11.48
2023-05-16T07:58:35.553Z,15.25
2023-05-16T08:01:05.769Z,13.55
2023-05-16T08:03:34.352Z,10.85
2023-05-16T08:06:02.970Z,7.60
2023-05-16T08:08:31.374Z,15.68
2023-05-16T08:10:59.729Z,10.68
2023-05-16T08:13:28.105Z,13.88
2023-05-16T08:15:56.472Z,9.35
2023-05-16T08:18:26.186Z,10.55
2023-05-16T08:20:54.538Z,13.27
2023-05-16T08:23:23.039Z,15.90
2023-05-16T08:25:51.392Z,14.18
2023-05-16T08:28:19.724Z,15.10
2023-05-16T08:30:48.192Z,12.85
2023-05-16T08:33:16.743Z,10.80
2023-05-16T08:35:46.716Z,17.08
2023-05-16T08:38:15.003Z,8.32
2023-05-16T08:40:45.215Z,6.50
2023-05-16T08:43:14.011Z,8.45
2023-05-16T08:45:42.939Z,10.25
2023-05-16T08:48:12.603Z,6.45
2023-05-16T08:50:42.892Z,12.13
2023-05-16T08:53:15.991Z,15.57
2023-05-16T08:55:47.001Z,12.48
2023-05-16T08:58:15.993Z,16.90
2023-05-16T09:00:44.911Z,11.65
2023-05-16T09:03:13.549Z,14.90
2023-05-16T09:05:42.505Z,9.90
2023-05-16T09:08:12.248Z,10.05
2023-05-16T09:10:40.580Z,5.53
2023-05-16T09:13:08.900Z,7.82
2023-05-16T09:15:37.296Z,5.47
2023-05-16T09:18:05.756Z,10.25
2023-05-16T09:20:34.249Z,8.02
2023-05-16T09:23:03.372Z,12.52
2023-05-16T09:25:33.183Z,15.93
2023-05-16T09:28:03.573Z,8.27
2023-05-16T09:30:34.271Z,9.73
2023-05-16T09:33:03.247Z,15.25
2023-05-16T09:38:04.142Z,11.93
2023-05-16T09:40:34.031Z,8.73
2023-05-16T09:43:07.990Z,10.40
2023-05-16T09:45:38.046Z,10.15
2023-05-16T09:48:08.375Z,7.38
2023-05-16T09:50:38.656Z,5.57
2023-05-16T09:53:07.223Z,10.38
2023-05-16T09:55:36.892Z,4.00
2023-05-16T09:58:06.899Z,10.15
2023-05-16T10:00:35.742Z,3.30
2023-05-16T10:03:05.851Z,6.57
2023-05-16T10:05:35.921Z,6.55
2023-05-16T10:08:05.588Z,10.52
2023-05-16T10:10:39.771Z,9.30
2023-05-16T10:13:09.933Z,8.82
2023-05-16T10:15:39.316Z,7.25
2023-05-16T10:18:13.251Z,11.65
2023-05-16T10:20:43.726Z,7.18
2023-05-16T10:23:17.691Z,10.48
2023-05-16T10:25:48.664Z,11.82
2023-05-16T10:28:17.890Z,5.78
2023-05-16T10:30:47.455Z,7.18
2023-05-16T10:33:19.827Z,8.20
2023-05-16T10:35:48.459Z,7.53
2023-05-16T10:38:19.660Z,14.02
2023-05-16T10:40:50.728Z,11.90
2023-05-16T10:43:26.959Z,11.68
2023-05-16T10:45:59.804Z,14.38
2023-05-16T10:48:32.802Z,9.98
2023-05-16T10:51:02.860Z,7.85
2023-05-16T10:53:32.692Z,9.68
2023-05-16T10:56:11.395Z,10.60
2023-05-16T10:58:48.242Z,10.57
2023-05-16T11:01:18.549Z,12.90
2023-05-16T11:04:07.431Z,10.50
2023-05-16T11:06:37.233Z,6.05
2023-05-16T11:09:19.332Z,11.55
2023-05-16T11:11:55.735Z,8.55
2023-05-16T11:14:25.615Z,8.88
2023-05-16T11:16:56.370Z,7.88
2023-05-16T11:19:33.402Z,8.05
2023-05-16T11:22:25.042Z,7.30
2023-05-16T11:24:57.226Z,8.93
2023-05-16T11:27:29.345Z,12.70
2023-05-16T11:30:03.714Z,9.85
2023-05-16T11:32:35.040Z,7.32
2023-05-16T11:35:04.721Z,14.13
2023-05-16T11:37:33.086Z,14.05
2023-05-16T11:40:02.303Z,11.23
2023-05-16T11:42:35.745Z,7.95
2023-05-16T11:45:08.863Z,11.98
2023-05-16T11:47:39.683Z,15.68
2023-05-16T11:50:10.083Z,15.70
2023-05-16T11:52:41.724Z,12.77
2023-05-16T11:55:11.529Z,9.90
2023-05-16T11:57:42.139Z,11.60
2023-05-16T12:00:17.850Z,12.15
2023-05-16T12:02:47.792Z,15.88
2023-05-16T12:05:17.407Z,13.73
2023-05-16T12:07:46.237Z,13.10
2023-05-16T12:10:15.968Z,12.68
2023-05-16T12:12:48.100Z,13.00
2023-05-16T12:15:17.355Z,14.05
2023-05-16T12:17:47.087Z,14.57
2023-05-16T12:20:16.828Z,13.68
2023-05-16T12:22:46.277Z,16.10
2023-05-16T12:25:26.941Z,9.60
2023-05-16T12:27:59.092Z,14.75
2023-05-16T12:30:29.483Z,14.30
2023-05-16T12:32:58.669Z,13.27
2023-05-16T12:35:27.395Z,11.68
2023-05-16T12:37:56.273Z,11.27
2023-05-16T12:40:25.097Z,10.90
2023-05-16T12:42:54.841Z,14.95
2023-05-16T12:45:25.072Z,12.23
2023-05-16T12:47:53.609Z,13.95
2023-05-16T12:50:23.139Z,10.73
2023-05-16T12:52:52.389Z,12.10
2023-05-16T12:55:21.921Z,14.43
2023-05-16T12:57:51.242Z,12.63
2023-05-16T13:00:21.837Z,14.95
2023-05-16T13:02:52.318Z,14.20
2023-05-16T13:05:23.470Z,16.52
2023-05-16T13:07:52.856Z,9.25
2023-05-16T13:10:21.351Z,16.50
2023-05-16T13:12:49.592Z,16.55
2023-05-16T13:15:18.172Z,11.77
2023-05-16T13:17:47.755Z,12.63
2023-05-16T13:20:17.538Z,14.07
2023-05-16T13:22:46.694Z,12.88
2023-05-16T13:25:15.027Z,17.33
2023-05-16T13:27:43.527Z,12.75
2023-05-16T13:30:12.383Z,16.80
2023-05-16T13:32:40.754Z,16.08
2023-05-16T13:35:09.830Z,14.00
2023-05-16T13:37:39.741Z,14.85
2023-05-16T13:40:10.709Z,15.35
2023-05-16T13:42:39.417Z,17.25
2023-05-16T13:45:08.490Z,14.55
2023-05-16T13:47:37.079Z,16.48
2023-05-16T13:50:10.256Z,16.30
2023-05-16T13:52:41.040Z,14.70
2023-05-16T13:55:09.994Z,15.23
2023-05-16T13:57:38.494Z,14.63
2023-05-16T14:02:44.510Z,14.63
2023-05-16T14:05:12.962Z,14.38
2023-05-16T14:07:44.726Z,18.17
2023-05-16T14:10:14.577Z,14.63
2023-05-16T14:12:42.940Z,19.30
2023-05-16T14:15:11.778Z,16.05
2023-05-16T14:17:40.248Z,16.48
2023-05-16T14:20:10.834Z,16.20
2023-05-16T14:22:39.728Z,11.88
2023-05-16T14:25:10.376Z,15.20
2023-05-16T14:27:38.829Z,11.45
2023-05-16T14:30:09.617Z,14.93
2023-05-16T14:32:38.154Z,12.57
2023-05-16T14:35:07.227Z,13.30
2023-05-16T14:37:35.614Z,14.90
2023-05-16T14:40:05.569Z,13.18
2023-05-16T14:42:35.293Z,10.82
2023-05-16T14:45:03.830Z,13.45
2023-05-16T14:47:32.302Z,16.02
2023-05-16T14:50:01.317Z,12.98
2023-05-16T14:52:29.929Z,17.88
2023-05-16T14:54:58.227Z,13.60
2023-05-16T14:57:26.571Z,14.95
2023-05-16T14:59:56.447Z,15.18
2023-05-16T15:02:24.705Z,14.43
2023-05-16T15:04:55.450Z,14.55
2023-05-16T15:07:23.824Z,13.55
2023-05-16T15:09:52.439Z,17.92
2023-05-16T15:12:20.781Z,16.27
2023-05-16T15:14:49.075Z,15.15
2023-05-16T15:17:18.762Z,15.90
2023-05-16T15:19:47.980Z,13.75
2023-05-16T15:22:16.289Z,15.75
2023-05-16T15:24:44.645Z,16.42
2023-05-16T15:27:13.025Z,14.30
2023-05-16T15:29:41.410Z,17.40
2023-05-16T15:32:11.399Z,11.75
2023-05-16T15:34:41.254Z,10.55
2023-05-16T15:37:09.579Z,11.52
2023-05-16T15:39:38.287Z,10.32
2023-05-16T15:42:11.078Z,12.90
2023-05-16T15:44:40.166Z,13.15
2023-05-16T15:47:08.916Z,12.68
2023-05-16T15:49:37.908Z,12.07
2023-05-16T15:52:08.214Z,12.07
2023-05-16T15:54:37.980Z,14.75
2023-05-16T15:57:07.037Z,11.98
2023-05-16T15:59:35.857Z,10.70
2023-05-16T16:02:05.603Z,13.73
2023-05-16T16:04:34.119Z,11.75
2023-05-16T16:07:02.486Z,14.35
2023-05-16T16:09:32.503Z,15.90
2023-05-16T16:12:01.265Z,16.90
2023-05-16T16:14:30.219Z,11.45
2023-05-16T16:16:58.591Z,12.80
2023-05-16T16:19:27.052Z,11.75
2023-05-16T16:21:55.518Z,14.75
2023-05-16T16:24:23.842Z,10.98
2023-05-16T16:26:53.710Z,12.38
2023-05-16T16:29:22.071Z,10.80
2023-05-16T16:31:50.673Z,14.50
2023-05-16T16:34:20.343Z,15.10
2023-05-16T16:36:50.733Z,13.98
2023-05-16T16:39:19.128Z,12.38
2023-05-16T16:41:47.453Z,14.48
2023-05-16T16:44:17.172Z,15.52
2023-05-16T16:46:45.813Z,14.52
2023-05-16T16:49:14.183Z,10.98
2023-05-16T16:51:42.788Z,15.00
2023-05-16T16:54:11.194Z,15.40
2023-05-16T16:56:39.518Z,11.02
2023-05-16T16:59:07.906Z,8.85
2023-05-16T17:01:37.693Z,17.08
2023-05-16T17:04:06.413Z,14.73
2023-05-16T17:06:35.094Z,10.65
2023-05-16T17:09:06.510Z,14.25
2023-05-16T17:11:36.416Z,10.90
2023-05-16T17:14:06.340Z,13.57
2023-05-16T17:16:35.262Z,11.98
2023-05-16T17:19:05.542Z,13.02
2023-05-16T17:21:34.774Z,14.20
2023-05-16T17:24:03.695Z,10.90
2023-05-16T17:26:32.113Z,14.98
2023-05-16T17:29:01.292Z,16.80
2023-05-16T17:31:29.711Z,18.13
2023-05-16T17:33:58.083Z,16.63
2023-05-16T17:36:27.847Z,15.48
2023-05-16T17:38:56.315Z,11.45
2023-05-16T17:41:24.727Z,13.68
2023-05-16T17:43:53.565Z,11.48
2023-05-16T17:46:21.908Z,12.95
2023-05-16T17:48:50.362Z,14.98
2023-05-16T17:51:21.398Z,13.02
2023-05-16T17:53:51.711Z,14.10
2023-05-16T17:56:20.180Z,15.82
2023-05-16T17:58:48.481Z,14.15
2023-05-16T18:01:17.340Z,19.58
2023-05-16T18:03:45.813Z,12.20
2023-05-16T18:06:14.256Z,12.88
2023-05-16T18:08:42.681Z,16.67
2023-05-16T18:11:12.442Z,14.60
2023-05-16T18:13:40.848Z,14.13
2023-05-16T18:16:12.931Z,19.60
2023-05-16T18:18:41.722Z,15.10
2023-05-16T18:21:10.216Z,19.63
2023-05-16T18:23:38.582Z,15.43
2023-05-16T18:26:06.897Z,16.50
2023-05-16T18:28:36.649Z,13.75
2023-05-16T18:31:05.159Z,18.30
2023-05-16T18:33:33.449Z,21.27
2023-05-16T18:36:01.735Z,15.32
2023-05-16T18:38:33.126Z,19.58
2023-05-16T18:41:02.460Z,17.27
2023-05-16T18:43:31.043Z,19.25
2023-05-16T18:46:00.751Z,15.38
2023-05-16T18:48:29.310Z,17.23
2023-05-16T18:50:57.723Z,12.25
2023-05-16T18:53:26.237Z,14.38
2023-05-16T18:55:54.686Z,17.77
2023-05-16T18:58:23.089Z,17.45
2023-05-16T19:00:51.713Z,15.40
2023-05-16T19:03:21.913Z,22.08
2023-05-16T19:05:50.589Z,16.65
2023-05-16T19:08:19.052Z,18.05
2023-05-16T19:10:47.454Z,15.85
2023-05-16T19:13:15.837Z,19.02
2023-05-16T19:15:44.528Z,15.93
2023-05-16T19:18:13.245Z,19.92
2023-05-16T19:20:44.975Z,18.15
2023-05-16T19:23:14.164Z,16.10
2023-05-16T19:25:47.377Z,21.52
2023-05-16T19:28:16.540Z,18.02
2023-05-16T19:30:45.080Z,19.88
2023-05-16T19:33:13.476Z,18.55
2023-05-16T19:35:43.297Z,24.40
2023-05-16T19:38:11.592Z,22.33
2023-05-16T19:40:39.954Z,19.95
2023-05-16T19:43:08.280Z,17.73
2023-05-16T19:45:36.666Z,21.05
2023-05-16T19:48:05.448Z,24.38
2023-05-16T19:50:33.919Z,21.45
2023-05-16T19:53:04.180Z,27.40
2023-05-16T19:55:33.996Z,23.17
2023-05-16T19:58:03.485Z,20.15
2023-05-16T20:00:31.852Z,23.77
2023-05-16T20:03:00.364Z,26.85
2023-05-16T20:05:29.076Z,19.75
2023-05-16T20:07:58.189Z,24.67
2023-05-16T20:10:27.914Z,26.65
2023-05-16T20:12:56.203Z,24.80
2023-05-16T20:15:24.942Z,23.25
2023-05-16T20:17:53.410Z,25.80
2023-05-16T20:20:22.065Z,23.38
2023-05-16T20:22:50.345Z,20.15
2023-05-16T20:25:18.721Z,23.33
2023-05-16T20:27:48.511Z,24.67
2023-05-16T20:30:16.850Z,22.85
2023-05-16T20:32:45.257Z,25.17
2023-05-16T20:35:14.897Z,23.73
2023-05-16T20:37:43.268Z,25.55
2023-05-16T20:40:12.112Z,25.38
2023-05-16T20:42:40.630Z,23.88
2023-05-16T20:45:11.564Z,29.50
2023-05-16T20:47:40.028Z,24.25
2023-05-16T20:50:09.493Z,23.15
2023-05-16T20:52:37.779Z,21.90
2023-05-16T20:55:06.904Z,22.90
2023-05-16T20:57:35.308Z,21.95
2023-05-16T21:00:04.652Z,25.55
2023-05-16T21:02:34.725Z,22.05
2023-05-16T21:05:19.655Z,24.40
2023-05-16T21:07:54.016Z,27.17
2023-05-16T21:10:22.834Z,21.58
2023-05-16T21:12:51.594Z,25.58
2023-05-16T21:15:23.204Z,26.30
2023-05-16T21:17:53.748Z,23.17
2023-05-16T21:20:22.073Z,28.70
2023-05-16T21:22:50.492Z,21.27
2023-05-16T21:25:19.334Z,23.35
2023-05-16T21:27:47.640Z,18.58
2023-05-16T21:30:16.335Z,23.50
2023-05-16T21:32:44.683Z,27.85
2023-05-16T21:35:14.423Z,21.83
2023-05-16T21:37:42.743Z,21.33
2023-05-16T21:40:14.768Z,19.45
2023-05-16T21:42:43.066Z,26.05
2023-05-16T21:45:15.870Z,23.77
2023-05-16T21:47:44.293Z,25.90
2023-05-16T21:50:14.336Z,17.42
2023-05-16T21:52:42.900Z,22.65
2023-05-16T21:55:11.696Z,20.88
2023-05-16T21:57:40.053Z,27.15
2023-05-16T22:00:09.987Z,25.33
2023-05-16T22:02:38.746Z,23.00
2023-05-16T22:05:08.130Z,17.05
2023-05-16T22:07:38.314Z,21.23
2023-05-16T22:10:07.908Z,27.05
2023-05-16T22:12:36.238Z,20.10
2023-05-16T22:15:04.995Z,20.35
2023-05-16T22:17:33.321Z,23.35
2023-05-16T22:20:02.621Z,27.77
2023-05-16T22:22:31.040Z,18.77
2023-05-16T22:25:01.251Z,23.95
2023-05-16T22:27:29.580Z,25.17
2023-05-16T22:29:57.927Z,20.90
2023-05-16T22:32:26.345Z,20.92
2023-05-16T22:34:54.624Z,24.27
2023-05-16T22:37:22.682Z,22.23
2023-05-16T22:39:51.383Z,20.52
2023-05-16T22:42:20.844Z,17.65
2023-05-16T22:44:48.885Z,25.05
2023-05-16T22:47:16.944Z,18.67
2023-05-16T22:49:45.040Z,20.17
2023-05-16T22:52:13.076Z,24.05
2023-05-16T22:54:42.103Z,19.50
2023-05-16T22:57:10.190Z,16.08
2023-05-16T22:59:39.681Z,21.85
2023-05-16T23:02:07.758Z,19.35
2023-05-16T23:04:35.862Z,19.33
2023-05-16T23:07:03.984Z,24.38
2023-05-16T23:09:32.080Z,19.60
2023-05-16T23:12:00.277Z,18.35
2023-05-16T23:14:28.448Z,23.02
2023-05-16T23:16:57.898Z,19.83
2023-05-16T23:19:26.231Z,21.15
2023-05-16T23:21:54.351Z,21.13
2023-05-16T23:24:22.717Z,27.38
2023-05-16T23:26:50.853Z,28.30
2023-05-16T23:29:18.945Z,24.02
2023-05-16T23:31:47.419Z,24.98
2023-05-16T23:34:16.843Z,20.27
2023-05-16T23:36:44.956Z,21.48
2023-05-16T23:39:13.086Z,18.05
2023-05-16T23:41:41.167Z,25.90
2023-05-16T23:44:09.209Z,19.23
2023-05-16T23:46:37.258Z,24.02
2023-05-16T23:49:05.343Z,20.23
2023-05-16T23:51:45.319Z,19.23
2023-05-16T23:54:22.811Z,21.13
2023-05-16T23:56:51.093Z,26.25
2023-05-16T23:59:19.957Z,26.10
